Time;durP1;ratioP1;P1;durP2;ratioP2;P2;SDS_P1;SDS_P2;PMS_P1;PMS_P2;Temp;Humidity;BMP_temperature;BMP_pressure;BME280_temperature;BME280_humidity;BME280_pressure;Samples;Min_cycle;Max_cycle;Signal;HPM_P1;HPM_P2
2022/07/21 00:01:15;;;;;;;11.98;7.22;;;;;;;;;;5052970;28;20025;-46
2022/07/21 00:03:41;;;;;;;8.85;6.28;;;;;;;;;;5052775;28;20362;-47
2022/07/21 00:06:07;;;;;;;8.15;6.55;;;;;;;;;;5052645;28;20052;-47
2022/07/21 00:08:33;;;;;;;10.10;6.45;;;;;;;;;;5052927;28;20396;-49
2022/07/21 00:10:59;;;;;;;8.93;6.03;;;;;;;;;;5052881;28;20097;-46
2022/07/21 00:13:25;;;;;;;8.45;6.85;;;;;;;;;;5053041;28;20025;-46
2022/07/21 00:15:51;;;;;;;7.18;5.95;;;;;;;;;;5051131;28;20032;-47
2022/07/21 00:18:18;;;;;;;9.48;6.45;;;;;;;;;;5052419;28;20075;-46
2022/07/21 00:20:44;;;;;;;7.13;6.22;;;;;;;;;;5051232;28;20044;-47
2022/07/21 00:23:10;;;;;;;13.55;6.50;;;;;;;;;;5053188;28;20029;-47
2022/07/21 00:25:36;;;;;;;8.15;5.53;;;;;;;;;;5052674;28;20028;-47
2022/07/21 00:28:05;;;;;;;6.15;5.25;;;;;;;;;;5052550;28;20032;-49
2022/07/21 00:30:32;;;;;;;10.00;6.30;;;;;;;;;;5052575;28;20083;-46
2022/07/21 00:32:58;;;;;;;12.85;7.55;;;;;;;;;;5052763;28;20039;-47
2022/07/21 00:35:24;;;;;;;9.75;7.10;;;;;;;;;;5052704;28;20029;-47
2022/07/21 00:37:50;;;;;;;7.78;6.18;;;;;;;;;;5052338;28;20550;-47
2022/07/21 00:40:16;;;;;;;8.00;7.20;;;;;;;;;;5053081;28;20021;-46
2022/07/21 00:42:42;;;;;;;11.88;7.43;;;;;;;;;;5054682;28;20460;-47
2022/07/21 00:45:09;;;;;;;9.52;8.00;;;;;;;;;;5056453;28;20471;-48
2022/07/21 00:47:35;;;;;;;9.82;7.75;;;;;;;;;;5056497;28;20022;-47
2022/07/21 00:50:04;;;;;;;11.75;8.90;;;;;;;;;;5056191;28;20546;-53
2022/07/21 00:52:30;;;;;;;10.85;8.90;;;;;;;;;;5056313;28;20017;-48
2022/07/21 00:54:56;;;;;;;12.55;9.05;;;;;;;;;;5056477;28;20028;-50
2022/07/21 00:57:22;;;;;;;11.05;8.25;;;;;;;;;;5056280;28;20033;-48
2022/07/21 00:59:48;;;;;;;12.25;9.20;;;;;;;;;;5056238;28;20139;-47
2022/07/21 01:02:16;;;;;;;13.32;9.90;;;;;;;;;;5056096;28;20017;-47
2022/07/21 01:04:42;;;;;;;10.32;9.23;;;;;;;;;;5055819;28;20548;-47
2022/07/21 01:07:08;;;;;;;14.73;10.75;;;;;;;;;;5055910;28;20127;-50
2022/07/21 01:09:35;;;;;;;12.60;10.48;;;;;;;;;;5055961;28;20384;-49
2022/07/21 01:12:01;;;;;;;13.90;10.68;;;;;;;;;;5055739;28;20404;-47
2022/07/21 01:14:27;;;;;;;13.57;10.63;;;;;;;;;;5055841;28;20109;-49
2022/07/21 01:16:53;;;;;;;13.90;10.73;;;;;;;;;;5055609;28;20033;-48
2022/07/21 01:19:20;;;;;;;15.18;11.60;;;;;;;;;;5055438;28;20036;-48
2022/07/21 01:21:47;;;;;;;15.63;10.45;;;;;;;;;;5055411;28;20052;-47
2022/07/21 01:24:13;;;;;;;14.52;10.68;;;;;;;;;;5055661;28;20078;-49
2022/07/21 01:26:47;;;;;;;15.25;12.02;;;;;;;;;;5055532;28;20075;-48
2022/07/21 01:29:13;;;;;;;16.08;13.07;;;;;;;;;;5054630;28;20040;-47
2022/07/21 01:31:40;;;;;;;16.98;12.75;;;;;;;;;;5055639;28;20357;-47
2022/07/21 01:34:07;;;;;;;18.15;12.95;;;;;;;;;;5055430;28;20021;-46
2022/07/21 01:36:33;;;;;;;17.55;12.27;;;;;;;;;;5055051;28;20064;-49
2022/07/21 01:41:44;;;;;;;15.45;11.40;;;;;;;;;;5055754;28;20507;-48
2022/07/21 01:44:12;;;;;;;18.65;13.13;;;;;;;;;;5055286;28;20020;-48
2022/07/21 01:46:39;;;;;;;16.77;13.00;;;;;;;;;;5055095;28;20025;-47
2022/07/21 01:49:06;;;;;;;17.52;13.20;;;;;;;;;;5055220;28;20049;-46
2022/07/21 01:51:32;;;;;;;18.88;12.10;;;;;;;;;;5055056;28;20036;-48
2022/07/21 01:53:58;;;;;;;20.30;14.65;;;;;;;;;;5055061;28;20029;-48
2022/07/21 01:56:25;;;;;;;22.08;14.52;;;;;;;;;;5054872;28;20071;-49
2022/07/21 01:58:52;;;;;;;16.35;12.77;;;;;;;;;;5054775;28;20040;-47
2022/07/21 02:01:19;;;;;;;20.05;13.35;;;;;;;;;;5054917;28;20446;-47
2022/07/21 02:03:45;;;;;;;16.92;12.75;;;;;;;;;;5054996;28;20483;-47
2022/07/21 02:06:12;;;;;;;13.82;10.93;;;;;;;;;;5053408;28;20024;-48
2022/07/21 02:08:38;;;;;;;21.80;11.68;;;;;;;;;;5054729;28;20468;-50
2022/07/21 02:11:05;;;;;;;14.70;11.23;;;;;;;;;;5055074;28;20064;-48
2022/07/21 02:13:31;;;;;;;13.82;9.63;;;;;;;;;;5054532;28;20032;-47
2022/07/21 02:15:57;;;;;;;13.70;10.10;;;;;;;;;;5053507;28;20029;-49
2022/07/21 02:18:23;;;;;;;13.98;9.68;;;;;;;;;;5054508;28;20029;-50
2022/07/21 02:20:50;;;;;;;13.75;8.55;;;;;;;;;;5053082;28;20033;-49
2022/07/21 02:23:16;;;;;;;10.88;9.57;;;;;;;;;;5053020;28;20453;-49
2022/07/21 02:25:42;;;;;;;11.25;9.70;;;;;;;;;;5054193;28;20025;-48
2022/07/21 02:28:08;;;;;;;15.80;10.68;;;;;;;;;;5054080;28;20021;-47
2022/07/21 02:30:34;;;;;;;17.15;9.57;;;;;;;;;;5054144;28;20025;-48
2022/07/21 02:33:00;;;;;;;14.02;11.02;;;;;;;;;;5054239;28;20041;-47
2022/07/21 02:35:26;;;;;;;14.73;10.77;;;;;;;;;;5054070;28;20025;-47
2022/07/21 02:37:52;;;;;;;17.77;10.48;;;;;;;;;;5053928;28;20075;-47
2022/07/21 02:40:18;;;;;;;16.60;10.25;;;;;;;;;;5053872;28;20021;-48
2022/07/21 02:42:45;;;;;;;15.85;10.48;;;;;;;;;;5052840;28;20028;-48
2022/07/21 02:45:11;;;;;;;15.93;11.25;;;;;;;;;;5052727;28;20044;-48
2022/07/21 02:47:49;;;;;;;12.40;9.90;;;;;;;;;;5054073;28;20105;-47
2022/07/21 02:50:15;;;;;;;15.77;10.80;;;;;;;;;;5053843;28;20053;-48
2022/07/21 02:52:41;;;;;;;16.50;11.45;;;;;;;;;;5052644;28;20075;-46
2022/07/21 02:55:08;;;;;;;18.52;10.45;;;;;;;;;;5053502;28;20040;-47
2022/07/21 02:57:34;;;;;;;14.35;10.02;;;;;;;;;;5054318;28;20043;-48
2022/07/21 03:00:00;;;;;;;14.45;9.52;;;;;;;;;;5053796;28;20509;-49
2022/07/21 03:02:26;;;;;;;15.75;9.38;;;;;;;;;;5053715;28;20469;-47
2022/07/21 03:04:52;;;;;;;12.43;9.45;;;;;;;;;;5053005;28;20053;-46
2022/07/21 03:07:18;;;;;;;11.35;9.07;;;;;;;;;;5052407;28;20492;-47
2022/07/21 03:09:45;;;;;;;15.10;9.05;;;;;;;;;;5052794;28;20029;-50
2022/07/21 03:12:12;;;;;;;13.77;8.77;;;;;;;;;;5053734;28;20083;-48
2022/07/21 03:14:38;;;;;;;12.82;8.90;;;;;;;;;;5053373;28;20385;-47
2022/07/21 03:17:04;;;;;;;17.15;10.32;;;;;;;;;;5053707;28;20035;-47
2022/07/21 03:19:30;;;;;;;12.27;8.68;;;;;;;;;;5052020;28;20086;-48
2022/07/21 03:21:56;;;;;;;11.40;8.32;;;;;;;;;;5053094;28;20107;-48
2022/07/21 03:24:22;;;;;;;11.77;8.93;;;;;;;;;;5053056;28;20175;-48
2022/07/21 03:26:48;;;;;;;9.68;8.32;;;;;;;;;;5053165;28;20025;-49
2022/07/21 03:29:14;;;;;;;11.88;8.00;;;;;;;;;;5053303;28;20373;-49
2022/07/21 03:31:40;;;;;;;12.70;7.97;;;;;;;;;;5051767;28;20021;-47
2022/07/21 03:34:06;;;;;;;16.52;8.95;;;;;;;;;;5052993;28;20111;-47
2022/07/21 03:36:33;;;;;;;13.95;8.90;;;;;;;;;;5053088;28;20036;-47
2022/07/21 19:45:38;;;;;;;35.45;24.00;;;;;;;;;;5071567;28;20462;-46
2022/07/21 19:48:04;;;;;;;29.02;19.45;;;;;;;;;;5071269;28;20112;-46
2022/07/21 19:50:30;;;;;;;24.42;17.98;;;;;;;;;;5069770;28;20017;-46
2022/07/21 19:52:56;;;;;;;23.50;16.38;;;;;;;;;;5070957;28;20423;-48
2022/07/21 19:55:22;;;;;;;20.80;15.00;;;;;;;;;;5069234;28;20033;-46
2022/07/21 19:57:49;;;;;;;19.65;14.13;;;;;;;;;;5070755;28;20029;-47
2022/07/21 20:00:17;;;;;;;21.30;14.05;;;;;;;;;;5070623;28;20037;-47
2022/07/21 20:02:43;;;;;;;20.17;12.70;;;;;;;;;;5070838;28;20103;-46
2022/07/21 20:05:09;;;;;;;16.15;11.43;;;;;;;;;;5070127;28;20028;-46
2022/07/21 20:07:36;;;;;;;17.83;11.60;;;;;;;;;;5069671;28;20020;-47
2022/07/21 20:10:03;;;;;;;12.88;10.43;;;;;;;;;;5069954;28;20017;-47
2022/07/21 20:12:29;;;;;;;13.63;10.20;;;;;;;;;;5069784;28;20084;-47
2022/07/21 20:14:55;;;;;;;15.18;10.80;;;;;;;;;;5069798;28;20503;-46
2022/07/21 20:17:21;;;;;;;13.20;9.25;;;;;;;;;;5068493;28;20395;-49
2022/07/21 20:19:47;;;;;;;15.65;11.70;;;;;;;;;;5069803;28;20103;-47
2022/07/21 20:22:13;;;;;;;13.40;10.20;;;;;;;;;;5069533;28;20024;-46
2022/07/21 20:24:39;;;;;;;10.57;9.05;;;;;;;;;;5070269;28;20518;-46
2022/07/21 20:27:05;;;;;;;11.75;9.57;;;;;;;;;;5069490;28;20099;-47
2022/07/21 20:29:31;;;;;;;13.82;9.27;;;;;;;;;;5068046;28;20074;-47
2022/07/21 20:31:57;;;;;;;13.95;9.95;;;;;;;;;;5069448;28;20083;-46
2022/07/21 20:34:23;;;;;;;12.32;9.23;;;;;;;;;;5069839;28;20024;-47
2022/07/21 20:36:49;;;;;;;13.80;10.32;;;;;;;;;;5069606;28;20032;-47
2022/07/21 20:39:15;;;;;;;11.40;9.10;;;;;;;;;;5069605;28;20167;-47
2022/07/21 20:41:41;;;;;;;13.82;11.07;;;;;;;;;;5069236;28;20036;-46
2022/07/21 20:44:08;;;;;;;12.55;10.27;;;;;;;;;;5069014;28;20041;-48
2022/07/21 20:46:34;;;;;;;11.52;10.23;;;;;;;;;;5069383;28;20028;-46
2022/07/21 20:49:00;;;;;;;12.40;10.93;;;;;;;;;;5068998;28;20066;-46
2022/07/21 20:51:26;;;;;;;11.93;10.57;;;;;;;;;;5069160;28;20032;-46
2022/07/21 20:53:52;;;;;;;12.18;10.88;;;;;;;;;;5069000;28;20049;-47
2022/07/21 20:56:18;;;;;;;10.55;9.45;;;;;;;;;;5059663;28;20025;-47
2022/07/21 20:58:44;;;;;;;10.23;8.80;;;;;;;;;;5056447;28;20021;-48
2022/07/21 21:01:10;;;;;;;11.77;9.38;;;;;;;;;;5055551;28;20021;-47
2022/07/21 21:03:36;;;;;;;11.23;9.40;;;;;;;;;;5055559;28;20440;-46
2022/07/21 21:06:02;;;;;;;8.82;7.05;;;;;;;;;;5055836;28;20066;-46
2022/07/21 21:08:28;;;;;;;6.90;6.20;;;;;;;;;;5055754;28;20025;-47
2022/07/21 21:10:54;;;;;;;7.38;6.53;;;;;;;;;;5055760;28;20047;-46
2022/07/21 21:13:20;;;;;;;9.48;7.03;;;;;;;;;;5055374;28;20025;-46
2022/07/21 21:15:46;;;;;;;11.73;9.57;;;;;;;;;;5055638;28;20148;-46
2022/07/21 21:18:13;;;;;;;7.57;6.78;;;;;;;;;;5055294;28;20114;-46
2022/07/21 21:20:39;;;;;;;7.53;6.28;;;;;;;;;;5055341;28;20134;-48
2022/07/21 21:23:05;;;;;;;10.63;5.82;;;;;;;;;;5055998;28;20040;-47
2022/07/21 21:25:31;;;;;;;4.90;4.38;;;;;;;;;;5055706;28;20021;-48
2022/07/21 21:27:57;;;;;;;5.18;3.80;;;;;;;;;;5055077;28;20032;-47
2022/07/21 21:30:23;;;;;;;4.80;3.35;;;;;;;;;;5055217;28;20481;-46
2022/07/21 21:32:49;;;;;;;4.88;3.15;;;;;;;;;;5053722;28;20439;-47
2022/07/21 21:35:15;;;;;;;4.43;2.72;;;;;;;;;;5053792;28;20063;-48
2022/07/21 21:37:41;;;;;;;2.92;2.63;;;;;;;;;;5055027;28;20033;-47
2022/07/21 21:40:08;;;;;;;3.30;2.20;;;;;;;;;;5053665;28;20028;-47
2022/07/21 21:42:34;;;;;;;2.53;2.30;;;;;;;;;;5055075;28;20028;-47
2022/07/21 21:45:00;;;;;;;2.40;2.20;;;;;;;;;;5054991;28;20045;-47
2022/07/21 21:47:26;;;;;;;5.47;2.17;;;;;;;;;;5054955;28;20037;-47
2022/07/21 21:49:52;;;;;;;3.67;2.05;;;;;;;;;;5054853;28;20025;-47
2022/07/21 21:52:18;;;;;;;2.95;1.92;;;;;;;;;;5054714;28;20024;-47
2022/07/21 21:54:44;;;;;;;4.65;2.20;;;;;;;;;;5054699;28;20397;-46
2022/07/21 21:57:10;;;;;;;2.67;2.45;;;;;;;;;;5053499;28;20178;-48
2022/07/21 21:59:37;;;;;;;3.08;2.17;;;;;;;;;;5054831;28;20029;-46
2022/07/21 22:02:03;;;;;;;2.08;1.88;;;;;;;;;;5054057;28;20111;-46
2022/07/21 22:04:29;;;;;;;2.97;2.15;;;;;;;;;;5054449;28;20031;-46
2022/07/21 22:06:55;;;;;;;4.60;2.40;;;;;;;;;;5054807;28;20477;-46
2022/07/21 22:09:21;;;;;;;3.92;1.88;;;;;;;;;;5054488;28;20028;-45
2022/07/21 22:11:47;;;;;;;2.05;1.95;;;;;;;;;;5055088;28;20025;-47
2022/07/21 22:14:13;;;;;;;7.82;2.33;;;;;;;;;;5054695;28;20059;-47
2022/07/21 22:16:39;;;;;;;3.20;2.50;;;;;;;;;;5054670;28;20033;-46
2022/07/21 22:19:05;;;;;;;2.70;2.20;;;;;;;;;;5054775;28;20393;-46
2022/07/21 22:21:31;;;;;;;8.13;2.33;;;;;;;;;;5054498;28;20032;-46
2022/07/21 22:23:59;;;;;;;2.50;2.30;;;;;;;;;;5054364;28;20048;-45
2022/07/21 22:26:26;;;;;;;3.00;2.05;;;;;;;;;;5053020;28;20469;-47
2022/07/21 22:28:52;;;;;;;2.20;2.00;;;;;;;;;;5054216;28;20057;-47
2022/07/21 22:31:18;;;;;;;2.95;2.40;;;;;;;;;;5054754;28;20040;-47
2022/07/21 22:33:44;;;;;;;3.33;2.38;;;;;;;;;;5054383;28;20021;-46
2022/07/21 22:36:10;;;;;;;2.08;1.95;;;;;;;;;;5054338;28;20021;-46
2022/07/21 22:38:36;;;;;;;2.80;2.40;;;;;;;;;;5053998;28;20017;-46
2022/07/21 22:41:03;;;;;;;5.47;3.80;;;;;;;;;;5054207;28;20029;-48
2022/07/21 22:43:29;;;;;;;4.75;2.25;;;;;;;;;;5053622;28;20029;-47
2022/07/21 22:45:55;;;;;;;3.70;1.95;;;;;;;;;;5053932;28;20021;-47
2022/07/21 22:48:21;;;;;;;2.92;2.25;;;;;;;;;;5053659;28;20155;-47
2022/07/21 22:50:48;;;;;;;2.58;2.30;;;;;;;;;;5052485;28;20473;-47
2022/07/21 22:53:14;;;;;;;2.70;2.50;;;;;;;;;;5052478;28;20147;-46
2022/07/21 22:55:40;;;;;;;2.13;1.92;;;;;;;;;;5053882;28;20055;-45
2022/07/21 22:58:06;;;;;;;2.08;1.90;;;;;;;;;;5053674;28;20527;-47
2022/07/21 23:00:32;;;;;;;2.10;1.50;;;;;;;;;;5053677;28;20021;-45
2022/07/21 23:02:59;;;;;;;3.42;2.00;;;;;;;;;;5052197;28;20029;-47
2022/07/21 23:05:29;;;;;;;4.45;2.10;;;;;;;;;;5053798;28;20583;-47
2022/07/21 23:07:55;;;;;;;4.90;1.92;;;;;;;;;;5052906;28;20031;-46
2022/07/21 23:10:21;;;;;;;6.93;1.75;;;;;;;;;;5053345;28;20473;-47
2022/07/21 23:12:47;;;;;;;4.15;2.60;;;;;;;;;;5052025;28;20108;-46
2022/07/21 23:15:13;;;;;;;2.20;2.00;;;;;;;;;;5053197;28;20036;-46
2022/07/21 23:17:40;;;;;;;5.35;2.30;;;;;;;;;;5053127;28;20056;-47
2022/07/21 23:20:07;;;;;;;4.38;2.40;;;;;;;;;;5053303;28;20440;-46
2022/07/21 23:22:33;;;;;;;3.30;2.30;;;;;;;;;;5053597;28;20033;-47
2022/07/21 23:24:59;;;;;;;2.70;2.08;;;;;;;;;;5053081;28;20029;-45
2022/07/21 23:27:25;;;;;;;3.90;2.30;;;;;;;;;;5052985;28;20477;-47
2022/07/21 23:29:52;;;;;;;3.35;2.03;;;;;;;;;;5053057;28;20028;-46
2022/07/21 23:32:18;;;;;;;2.97;2.08;;;;;;;;;;5053399;28;20029;-47
2022/07/21 23:34:44;;;;;;;2.13;1.67;;;;;;;;;;5052900;28;20021;-48
2022/07/21 23:37:10;;;;;;;3.65;2.33;;;;;;;;;;5052929;28;20526;-45
2022/07/21 23:39:36;;;;;;;4.93;2.30;;;;;;;;;;5053572;28;20443;-47
2022/07/21 23:42:02;;;;;;;2.13;1.98;;;;;;;;;;5051586;28;20028;-45
2022/07/21 23:44:28;;;;;;;6.38;2.60;;;;;;;;;;5052497;28;20052;-46
2022/07/21 23:46:54;;;;;;;2.65;2.45;;;;;;;;;;5053191;28;20095;-46
2022/07/21 23:49:20;;;;;;;2.33;2.13;;;;;;;;;;5052777;28;20029;-48
2022/07/21 23:51:46;;;;;;;3.13;1.70;;;;;;;;;;5053024;28;20024;-47
2022/07/21 23:54:12;;;;;;;2.42;1.75;;;;;;;;;;5052766;28;20078;-46
2022/07/21 23:56:38;;;;;;;3.83;2.70;;;;;;;;;;5052631;28;20028;-46
2022/07/21 23:59:04;;;;;;;2.95;2.03;;;;;;;;;;5053576;28;20036;-47
